sensor_id;sensor_type;location;lat;lon;timestamp;pressure;altitude;pressure_sealevel;temperature;humidity
49813;BME280;35706;52.100;5.056;2023-03-26T00:00:31;100633.38;;;8.56;97.94
49813;BME280;35706;52.100;5.056;2023-03-26T00:01:33;100637.09;;;8.54;98.11
49813;BME280;35706;52.100;5.056;2023-03-26T00:02:35;100641.50;;;8.53;98.28
49813;BME280;35706;52.100;5.056;2023-03-26T00:03:39;100639.41;;;8.68;97.77
49813;BME280;35706;52.100;5.056;2023-03-26T00:04:39;100627.13;;;8.48;98.84
49813;BME280;35706;52.100;5.056;2023-03-26T00:05:43;100633.34;;;8.47;99.42
49813;BME280;35706;52.100;5.056;2023-03-26T00:06:43;100627.94;;;8.48;99.14
49813;BME280;35706;52.100;5.056;2023-03-26T00:07:47;100640.59;;;8.43;99.60
49813;BME280;35706;52.100;5.056;2023-03-26T00:08:48;100640.00;;;8.40;100.00
49813;BME280;35706;52.100;5.056;2023-03-26T00:09:49;100634.59;;;8.52;99.86
49813;BME280;35706;52.100;5.056;2023-03-26T00:10:49;100637.22;;;8.52;99.81
49813;BME280;35706;52.100;5.056;2023-03-26T00:11:50;100640.28;;;8.58;99.81
49813;BME280;35706;52.100;5.056;2023-03-26T00:12:51;100638.75;;;8.55;99.96
49813;BME280;35706;52.100;5.056;2023-03-26T00:13:52;100640.72;;;8.42;100.00
49813;BME280;35706;52.100;5.056;2023-03-26T00:14:55;100638.69;;;8.45;100.00
49813;BME280;35706;52.100;5.056;2023-03-26T00:15:56;100643.81;;;8.47;100.00
49813;BME280;35706;52.100;5.056;2023-03-26T00:16:56;100642.25;;;8.44;100.00
49813;BME280;35706;52.100;5.056;2023-03-26T00:17:57;100642.53;;;8.41;100.00
49813;BME280;35706;52.100;5.056;2023-03-26T00:19:00;100637.38;;;8.51;100.00
49813;BME280;35706;52.100;5.056;2023-03-26T00:20:01;100632.66;;;8.54;100.00
49813;BME280;35706;52.100;5.056;2023-03-26T00:21:04;100633.75;;;8.52;100.00
49813;BME280;35706;52.100;5.056;2023-03-26T00:22:05;100627.50;;;8.43;100.00
49813;BME280;35706;52.100;5.056;2023-03-26T00:23:05;100626.06;;;8.39;100.00
49813;BME280;35706;52.100;5.056;2023-03-26T00:24:10;100624.88;;;8.43;100.00
49813;BME280;35706;52.100;5.056;2023-03-26T00:25:13;100620.59;;;8.63;100.00
49813;BME280;35706;52.100;5.056;2023-03-26T00:26:15;100618.81;;;8.64;100.00
49813;BME280;35706;52.100;5.056;2023-03-26T00:27:16;100620.56;;;8.53;100.00
49813;BME280;35706;52.100;5.056;2023-03-26T00:28:17;100615.50;;;8.62;100.00
49813;BME280;35706;52.100;5.056;2023-03-26T00:29:21;100615.41;;;8.73;100.00
49813;BME280;35706;52.100;5.056;2023-03-26T00:30:27;100617.75;;;8.76;99.86
49813;BME280;35706;52.100;5.056;2023-03-26T00:31:27;100611.06;;;8.83;100.00
49813;BME280;35706;52.100;5.056;2023-03-26T00:32:27;100610.47;;;8.80;100.00
49813;BME280;35706;52.100;5.056;2023-03-26T00:33:28;100613.22;;;8.78;100.00
49813;BME280;35706;52.100;5.056;2023-03-26T00:34:28;100602.63;;;8.80;100.00
49813;BME280;35706;52.100;5.056;2023-03-26T00:35:28;100607.97;;;8.78;100.00
49813;BME280;35706;52.100;5.056;2023-03-26T00:36:29;100603.00;;;8.75;100.00
49813;BME280;35706;52.100;5.056;2023-03-26T00:37:30;100601.03;;;8.67;100.00
49813;BME280;35706;52.100;5.056;2023-03-26T00:38:32;100599.78;;;8.62;100.00
49813;BME280;35706;52.100;5.056;2023-03-26T00:39:37;100599.00;;;8.71;100.00
49813;BME280;35706;52.100;5.056;2023-03-26T00:40:38;100597.31;;;8.70;100.00
49813;BME280;35706;52.100;5.056;2023-03-26T00:41:43;100599.28;;;8.68;100.00
49813;BME280;35706;52.100;5.056;2023-03-26T00:42:43;100604.75;;;8.65;100.00
49813;BME280;35706;52.100;5.056;2023-03-26T00:43:44;100600.91;;;8.69;100.00
49813;BME280;35706;52.100;5.056;2023-03-26T00:44:45;100604.75;;;8.65;100.00
49813;BME280;35706;52.100;5.056;2023-03-26T00:45:46;100595.41;;;8.72;100.00
49813;BME280;35706;52.100;5.056;2023-03-26T00:46:47;100595.38;;;8.62;100.00
49813;BME280;35706;52.100;5.056;2023-03-26T00:47:47;100589.41;;;8.60;100.00
49813;BME280;35706;52.100;5.056;2023-03-26T00:48:47;100591.72;;;8.53;100.00
49813;BME280;35706;52.100;5.056;2023-03-26T00:49:49;100586.28;;;8.66;100.00
49813;BME280;35706;52.100;5.056;2023-03-26T00:50:50;100585.50;;;8.75;100.00
49813;BME280;35706;52.100;5.056;2023-03-26T00:51:50;100591.41;;;8.68;100.00
49813;BME280;35706;52.100;5.056;2023-03-26T00:52:50;100591.19;;;8.81;100.00
49813;BME280;35706;52.100;5.056;2023-03-26T00:53:51;100589.63;;;8.78;100.00
49813;BME280;35706;52.100;5.056;2023-03-26T00:54:51;100585.88;;;8.71;100.00
49813;BME280;35706;52.100;5.056;2023-03-26T00:55:52;100592.47;;;8.65;100.00
49813;BME280;35706;52.100;5.056;2023-03-26T00:56:52;100586.69;;;8.62;100.00
49813;BME280;35706;52.100;5.056;2023-03-26T00:57:54;100591.78;;;8.63;100.00
49813;BME280;35706;52.100;5.056;2023-03-26T00:58:55;100589.31;;;8.62;100.00
49813;BME280;35706;52.100;5.056;2023-03-26T00:59:56;100582.25;;;8.62;100.00
49813;BME280;35706;52.100;5.056;2023-03-26T01:00:59;100581.69;;;8.59;100.00
49813;BME280;35706;52.100;5.056;2023-03-26T01:02:02;100578.88;;;8.50;100.00
49813;BME280;35706;52.100;5.056;2023-03-26T01:03:04;100578.25;;;8.58;100.00
49813;BME280;35706;52.100;5.056;2023-03-26T01:04:32;100576.44;;;8.59;100.00
49813;BME280;35706;52.100;5.056;2023-03-26T01:06:33;100567.06;;;8.56;100.00
49813;BME280;35706;52.100;5.056;2023-03-26T01:07:36;100570.28;;;8.69;100.00
49813;BME280;35706;52.100;5.056;2023-03-26T01:08:48;100573.19;;;8.66;100.00
49813;BME280;35706;52.100;5.056;2023-03-26T01:09:50;100561.88;;;8.66;100.00
49813;BME280;35706;52.100;5.056;2023-03-26T01:10:51;100568.81;;;8.76;100.00
49813;BME280;35706;52.100;5.056;2023-03-26T01:11:54;100564.22;;;8.69;100.00
49813;BME280;35706;52.100;5.056;2023-03-26T01:12:54;100566.28;;;8.65;100.00
49813;BME280;35706;52.100;5.056;2023-03-26T01:13:58;100564.94;;;8.71;100.00
49813;BME280;35706;52.100;5.056;2023-03-26T01:15:00;100559.16;;;8.77;100.00
49813;BME280;35706;52.100;5.056;2023-03-26T01:16:09;100562.22;;;8.82;100.00
49813;BME280;35706;52.100;5.056;2023-03-26T01:17:19;100554.34;;;8.82;100.00
49813;BME280;35706;52.100;5.056;2023-03-26T01:18:22;100547.34;;;8.83;100.00
49813;BME280;35706;52.100;5.056;2023-03-26T01:20:45;100544.50;;;8.95;100.00
49813;BME280;35706;52.100;5.056;2023-03-26T01:21:46;100550.44;;;8.98;100.00
49813;BME280;35706;52.100;5.056;2023-03-26T01:22:48;100538.91;;;8.89;100.00
49813;BME280;35706;52.100;5.056;2023-03-26T01:24:05;100543.34;;;8.88;100.00
49813;BME280;35706;52.100;5.056;2023-03-26T01:25:06;100539.25;;;8.95;100.00
49813;BME280;35706;52.100;5.056;2023-03-26T01:27:43;100540.53;;;8.80;100.00
49813;BME280;35706;52.100;5.056;2023-03-26T01:28:47;100534.06;;;8.84;100.00
49813;BME280;35706;52.100;5.056;2023-03-26T01:29:52;100529.81;;;8.83;100.00
49813;BME280;35706;52.100;5.056;2023-03-26T01:31:05;100543.47;;;8.87;100.00
49813;BME280;35706;52.100;5.056;2023-03-26T01:32:31;100540.72;;;8.88;100.00
49813;BME280;35706;52.100;5.056;2023-03-26T01:35:06;100533.16;;;8.95;100.00
49813;BME280;35706;52.100;5.056;2023-03-26T01:36:38;100533.31;;;8.93;100.00
49813;BME280;35706;52.100;5.056;2023-03-26T01:37:42;100525.97;;;8.97;100.00
49813;BME280;35706;52.100;5.056;2023-03-26T01:38:58;100526.50;;;8.81;100.00
49813;BME280;35706;52.100;5.056;2023-03-26T01:40:16;100520.56;;;8.89;100.00
49813;BME280;35706;52.100;5.056;2023-03-26T01:41:29;100516.84;;;8.82;100.00
49813;BME280;35706;52.100;5.056;2023-03-26T01:45:33;100516.97;;;8.80;100.00
49813;BME280;35706;52.100;5.056;2023-03-26T01:46:35;100519.69;;;8.69;100.00
49813;BME280;35706;52.100;5.056;2023-03-26T01:47:38;100516.00;;;8.81;100.00
49813;BME280;35706;52.100;5.056;2023-03-26T01:48:42;100511.53;;;8.72;100.00
49813;BME280;35706;52.100;5.056;2023-03-26T01:49:43;100512.00;;;8.77;100.00
49813;BME280;35706;52.100;5.056;2023-03-26T01:50:44;100516.97;;;8.80;100.00
49813;BME280;35706;52.100;5.056;2023-03-26T01:51:44;100518.50;;;8.83;100.00
49813;BME280;35706;52.100;5.056;2023-03-26T01:52:46;100517.53;;;8.84;100.00
49813;BME280;35706;52.100;5.056;2023-03-26T01:53:47;100518.06;;;8.77;100.00
49813;BME280;35706;52.100;5.056;2023-03-26T01:54:47;100515.31;;;8.79;100.00
49813;BME280;35706;52.100;5.056;2023-03-26T02:01:29;100507.16;;;8.72;100.00
49813;BME280;35706;52.100;5.056;2023-03-26T02:04:00;100500.53;;;8.78;100.00
49813;BME280;35706;52.100;5.056;2023-03-26T02:06:30;100493.94;;;8.84;100.00
49813;BME280;35706;52.100;5.056;2023-03-26T02:07:42;100493.13;;;8.93;100.00
49813;BME280;35706;52.100;5.056;2023-03-26T02:08:51;100495.06;;;8.91;100.00
49813;BME280;35706;52.100;5.056;2023-03-26T02:09:58;100494.81;;;8.94;100.00
49813;BME280;35706;52.100;5.056;2023-03-26T02:11:06;100487.47;;;8.88;100.00
49813;BME280;35706;52.100;5.056;2023-03-26T02:12:12;100488.63;;;9.05;100.00
49813;BME280;35706;52.100;5.056;2023-03-26T02:13:15;100483.50;;;8.93;100.00
49813;BME280;35706;52.100;5.056;2023-03-26T02:14:15;100475.88;;;8.90;100.00
49813;BME280;35706;52.100;5.056;2023-03-26T02:15:16;100487.88;;;8.83;100.00
49813;BME280;35706;52.100;5.056;2023-03-26T02:16:18;100489.13;;;8.89;100.00
49813;BME280;35706;52.100;5.056;2023-03-26T02:17:19;100481.41;;;8.87;100.00
49813;BME280;35706;52.100;5.056;2023-03-26T02:18:23;100477.28;;;8.85;100.00
49813;BME280;35706;52.100;5.056;2023-03-26T02:19:23;100485.38;;;8.82;100.00
49813;BME280;35706;52.100;5.056;2023-03-26T02:20:24;100476.69;;;8.81;100.00
49813;BME280;35706;52.100;5.056;2023-03-26T02:21:29;100479.72;;;8.76;100.00
49813;BME280;35706;52.100;5.056;2023-03-26T02:22:32;100478.09;;;8.85;100.00
49813;BME280;35706;52.100;5.056;2023-03-26T02:23:43;100471.47;;;8.91;100.00
49813;BME280;35706;52.100;5.056;2023-03-26T02:24:47;100476.16;;;8.97;100.00
49813;BME280;35706;52.100;5.056;2023-03-26T02:25:48;100475.03;;;8.80;100.00
49813;BME280;35706;52.100;5.056;2023-03-26T02:26:48;100473.63;;;8.76;100.00
49813;BME280;35706;52.100;5.056;2023-03-26T02:27:49;100476.00;;;8.79;100.00
49813;BME280;35706;52.100;5.056;2023-03-26T02:28:50;100467.41;;;8.67;100.00
49813;BME280;35706;52.100;5.056;2023-03-26T02:29:50;100470.31;;;8.74;100.00
49813;BME280;35706;52.100;5.056;2023-03-26T02:30:50;100470.03;;;8.67;100.00
49813;BME280;35706;52.100;5.056;2023-03-26T02:31:52;100466.75;;;8.75;100.00
49813;BME280;35706;52.100;5.056;2023-03-26T02:32:52;100472.94;;;8.74;100.00
49813;BME280;35706;52.100;5.056;2023-03-26T02:33:53;100464.53;;;8.80;100.00
49813;BME280;35706;52.100;5.056;2023-03-26T02:34:54;100463.31;;;8.74;100.00
49813;BME280;35706;52.100;5.056;2023-03-26T02:35:56;100471.53;;;8.70;100.00
49813;BME280;35706;52.100;5.056;2023-03-26T02:37:00;100463.97;;;8.67;100.00
49813;BME280;35706;52.100;5.056;2023-03-26T02:38:01;100467.56;;;8.66;100.00
49813;BME280;35706;52.100;5.056;2023-03-26T02:39:01;100468.38;;;8.66;100.00
49813;BME280;35706;52.100;5.056;2023-03-26T02:40:01;100467.44;;;8.77;100.00
49813;BME280;35706;52.100;5.056;2023-03-26T02:41:04;100465.63;;;8.68;100.00
49813;BME280;35706;52.100;5.056;2023-03-26T02:42:05;100465.53;;;8.79;100.00
49813;BME280;35706;52.100;5.056;2023-03-26T02:43:05;100463.72;;;8.80;100.00
49813;BME280;35706;52.100;5.056;2023-03-26T02:44:06;100459.88;;;8.84;100.00
49813;BME280;35706;52.100;5.056;2023-03-26T02:45:06;100460.69;;;8.74;100.00
49813;BME280;35706;52.100;5.056;2023-03-26T02:46:06;100462.47;;;8.74;100.00
49813;BME280;35706;52.100;5.056;2023-03-26T02:47:07;100458.19;;;8.73;100.00
49813;BME280;35706;52.100;5.056;2023-03-26T02:48:07;100454.19;;;8.69;100.00
49813;BME280;35706;52.100;5.056;2023-03-26T02:49:08;100453.34;;;8.68;100.00
49813;BME280;35706;52.100;5.056;2023-03-26T02:50:08;100462.47;;;8.74;100.00
49813;BME280;35706;52.100;5.056;2023-03-26T02:51:09;100457.06;;;8.66;100.00
49813;BME280;35706;52.100;5.056;2023-03-26T02:52:09;100456.50;;;8.62;100.00
49813;BME280;35706;52.100;5.056;2023-03-26T02:53:09;100459.00;;;8.64;100.00
49813;BME280;35706;52.100;5.056;2023-03-26T02:54:10;100457.06;;;8.66;100.00
49813;BME280;35706;52.100;5.056;2023-03-26T02:55:11;100456.22;;;8.65;100.00
49813;BME280;35706;52.100;5.056;2023-03-26T02:56:11;100458.69;;;8.57;100.00
49813;BME280;35706;52.100;5.056;2023-03-26T02:57:12;100454.31;;;8.67;100.00
49813;BME280;35706;52.100;5.056;2023-03-26T02:58:12;100454.19;;;8.69;100.00
49813;BME280;35706;52.100;5.056;2023-03-26T02:59:16;100463.97;;;8.67;100.00
49813;BME280;35706;52.100;5.056;2023-03-26T03:00:17;100453.69;;;8.85;100.00
49813;BME280;35706;52.100;5.056;2023-03-26T03:01:17;100454.88;;;8.71;100.00
49813;BME280;35706;52.100;5.056;2023-03-26T03:02:18;100451.84;;;8.75;100.00
49813;BME280;35706;52.100;5.056;2023-03-26T03:03:26;100446.06;;;8.82;100.00
49813;BME280;35706;52.100;5.056;2023-03-26T03:04:27;100445.22;;;8.71;100.00
49813;BME280;35706;52.100;5.056;2023-03-26T03:05:27;100445.09;;;8.73;100.00
49813;BME280;35706;52.100;5.056;2023-03-26T03:06:30;100448.28;;;8.76;100.00
49813;BME280;35706;52.100;5.056;2023-03-26T03:07:31;100445.09;;;8.73;100.00
49813;BME280;35706;52.100;5.056;2023-03-26T03:08:31;100446.47;;;8.77;100.00
49813;BME280;35706;52.100;5.056;2023-03-26T03:09:33;100439.44;;;8.68;100.00
49813;BME280;35706;52.100;5.056;2023-03-26T03:10:33;100443.56;;;8.70;100.00
49813;BME280;35706;52.100;5.056;2023-03-26T03:11:34;100434.44;;;8.65;100.00
49813;BME280;35706;52.100;5.056;2023-03-26T03:12:35;100441.34;;;8.66;100.00
49813;BME280;35706;52.100;5.056;2023-03-26T03:13:36;100434.16;;;8.58;100.00
49813;BME280;35706;52.100;5.056;2023-03-26T03:14:36;100435.66;;;8.61;100.00
49813;BME280;35706;52.100;5.056;2023-03-26T03:15:36;100437.63;;;8.68;100.00
49813;BME280;35706;52.100;5.056;2023-03-26T03:16:37;100433.91;;;8.71;100.00
49813;BME280;35706;52.100;5.056;2023-03-26T03:17:37;100434.88;;;8.70;100.00
49813;BME280;35706;52.100;5.056;2023-03-26T03:18:38;100435.56;;;8.72;100.00
49813;BME280;35706;52.100;5.056;2023-03-26T03:19:38;100435.03;;;8.78;100.00
49813;BME280;35706;52.100;5.056;2023-03-26T03:20:38;100432.69;;;8.75;100.00
49813;BME280;35706;52.100;5.056;2023-03-26T03:21:39;100424.28;;;8.81;100.00
49813;BME280;35706;52.100;5.056;2023-03-26T03:22:40;100428.44;;;8.84;100.00
49813;BME280;35706;52.100;5.056;2023-03-26T03:23:40;100434.03;;;8.69;100.00
49813;BME280;35706;52.100;5.056;2023-03-26T03:24:41;100429.66;;;8.80;100.00
49813;BME280;35706;52.100;5.056;2023-03-26T03:25:46;100432.53;;;8.67;100.00
49813;BME280;35706;52.100;5.056;2023-03-26T03:26:49;100428.25;;;8.66;100.00
49813;BME280;35706;52.100;5.056;2023-03-26T03:27:54;100430.31;;;8.62;100.00
49813;BME280;35706;52.100;5.056;2023-03-26T03:28:55;100425.34;;;8.69;100.00
49813;BME280;35706;52.100;5.056;2023-03-26T03:29:56;100430.59;;;8.69;100.00
49813;BME280;35706;52.100;5.056;2023-03-26T03:30:58;100419.72;;;8.73;100.00
49813;BME280;35706;52.100;5.056;2023-03-26T03:31:58;100426.75;;;8.73;100.00
49813;BME280;35706;52.100;5.056;2023-03-26T03:32:59;100421.50;;;8.73;100.00
49813;BME280;35706;52.100;5.056;2023-03-26T03:34:01;100420.00;;;8.80;100.00
49813;BME280;35706;52.100;5.056;2023-03-26T03:35:01;100420.44;;;8.85;100.00
49813;BME280;35706;52.100;5.056;2023-03-26T03:36:02;100426.66;;;8.94;100.00
49813;BME280;35706;52.100;5.056;2023-03-26T03:37:09;100422.78;;;8.88;100.00
49813;BME280;35706;52.100;5.056;2023-03-26T03:38:10;100417.66;;;8.77;100.00
49813;BME280;35706;52.100;5.056;2023-03-26T03:39:10;100424.53;;;8.68;100.00
49813;BME280;35706;52.100;5.056;2023-03-26T03:40:10;100423.72;;;8.68;100.00
49813;BME280;35706;52.100;5.056;2023-03-26T03:41:11;100414.34;;;8.75;100.00
49813;BME280;35706;52.100;5.056;2023-03-26T03:42:11;100417.09;;;8.73;100.00
49813;BME280;35706;52.100;5.056;2023-03-26T03:43:11;100415.72;;;8.89;100.00
49813;BME280;35706;52.100;5.056;2023-03-26T03:44:12;100415.44;;;8.72;100.00
49813;BME280;35706;52.100;5.056;2023-03-26T03:45:12;100412.66;;;8.74;100.00
49813;BME280;35706;52.100;5.056;2023-03-26T03:46:14;100414.34;;;8.75;100.00
49813;BME280;35706;52.100;5.056;2023-03-26T03:47:15;100414.34;;;8.75;100.00
49813;BME280;35706;52.100;5.056;2023-03-26T03:48:15;100413.50;;;8.65;100.00
49813;BME280;35706;52.100;5.056;2023-03-26T03:49:17;100415.97;;;8.66;100.00
49813;BME280;35706;52.100;5.056;2023-03-26T03:50:18;100412.38;;;8.67;100.00
49813;BME280;35706;52.100;5.056;2023-03-26T03:51:18;100408.41;;;8.73;100.00
49813;BME280;35706;52.100;5.056;2023-03-26T03:52:19;100410.50;;;8.79;100.00
49813;BME280;35706;52.100;5.056;2023-03-26T03:53:23;100404.28;;;8.80;100.00
49813;BME280;35706;52.100;5.056;2023-03-26T03:54:25;100401.50;;;8.72;100.00
49813;BME280;35706;52.100;5.056;2023-03-26T03:55:25;100404.69;;;8.75;100.00
49813;BME280;35706;52.100;5.056;2023-03-26T03:56:26;100400.53;;;8.73;100.00
49813;BME280;35706;52.100;5.056;2023-03-26T03:57:28;100398.50;;;8.76;100.00
49813;BME280;35706;52.100;5.056;2023-03-26T03:58:30;100392.84;;;8.81;100.00
49813;BME280;35706;52.100;5.056;2023-03-26T03:59:30;100396.13;;;8.73;100.00
49813;BME280;35706;52.100;5.056;2023-03-26T04:00:30;100390.72;;;8.65;100.00
49813;BME280;35706;52.100;5.056;2023-03-26T04:01:31;100393.22;;;8.67;100.00
49813;BME280;35706;52.100;5.056;2023-03-26T04:02:31;100388.72;;;8.79;100.00
49813;BME280;35706;52.100;5.056;2023-03-26T04:03:33;100382.06;;;8.74;100.00
49813;BME280;35706;52.100;5.056;2023-03-26T04:04:37;100386.63;;;8.82;100.00
49813;BME280;35706;52.100;5.056;2023-03-26T04:05:39;100394.75;;;8.89;100.00
49813;BME280;35706;52.100;5.056;2023-03-26T04:06:39;100384.28;;;8.89;100.00
49813;BME280;35706;52.100;5.056;2023-03-26T04:07:40;100381.69;;;8.99;100.00
49813;BME280;35706;52.100;5.056;2023-03-26T04:08:40;100387.47;;;8.83;100.00
49813;BME280;35706;52.100;5.056;2023-03-26T04:09:40;100384.84;;;8.83;100.00
49813;BME280;35706;52.100;5.056;2023-03-26T04:10:42;100389.25;;;8.82;100.00
49813;BME280;35706;52.100;5.056;2023-03-26T04:11:43;100380.00;;;8.78;100.00
49813;BME280;35706;52.100;5.056;2023-03-26T04:12:43;100384.53;;;8.66;100.00
49813;BME280;35706;52.100;5.056;2023-03-26T04:13:43;100379.84;;;8.70;100.00
49813;BME280;35706;52.100;5.056;2023-03-26T04:14:44;100377.66;;;8.94;100.00
49813;BME280;35706;52.100;5.056;2023-03-26T04:15:44;100378.22;;;8.79;100.00
49813;BME280;35706;52.100;5.056;2023-03-26T04:16:45;100384.28;;;8.79;100.00
49813;BME280;35706;52.100;5.056;2023-03-26T04:17:47;100380.97;;;8.87;100.00
49813;BME280;35706;52.100;5.056;2023-03-26T04:18:48;100375.06;;;8.85;100.00
49813;BME280;35706;52.100;5.056;2023-03-26T04:19:49;100373.81;;;8.99;100.00
49813;BME280;35706;52.100;5.056;2023-03-26T04:20:52;100368.56;;;8.79;100.00
49813;BME280;35706;52.100;5.056;2023-03-26T04:21:54;100370.63;;;8.85;100.00
49813;BME280;35706;52.100;5.056;2023-03-26T04:22:54;100368.44;;;8.81;100.00
49813;BME280;35706;52.100;5.056;2023-03-26T04:23:55;100361.97;;;8.85;100.00
49813;BME280;35706;52.100;5.056;2023-03-26T04:24:55;100363.31;;;8.79;100.00
49813;BME280;35706;52.100;5.056;2023-03-26T04:25:57;100364.97;;;8.90;100.00
49813;BME280;35706;52.100;5.056;2023-03-26T04:27:03;100360.56;;;8.90;100.00
49813;BME280;35706;52.100;5.056;2023-03-26T04:28:07;100360.41;;;8.82;100.00
49813;BME280;35706;52.100;5.056;2023-03-26T04:29:09;100349.53;;;8.77;100.00
49813;BME280;35706;52.100;5.056;2023-03-26T04:30:17;100351.84;;;8.80;100.00
49813;BME280;35706;52.100;5.056;2023-03-26T04:31:22;100349.94;;;8.82;100.00
49813;BME280;35706;52.100;5.056;2023-03-26T04:32:28;100346.34;;;8.93;100.00
49813;BME280;35706;52.100;5.056;2023-03-26T04:33:31;100347.88;;;8.95;100.00
49813;BME280;35706;52.100;5.056;2023-03-26T04:34:32;100340.13;;;8.84;100.00
49813;BME280;35706;52.100;5.056;2023-03-26T04:35:33;100347.19;;;8.93;100.00
49813;BME280;35706;52.100;5.056;2023-03-26T04:36:34;100339.59;;;8.90;100.00
49813;BME280;35706;52.100;5.056;2023-03-26T04:37:37;100339.34;;;8.93;100.00
49813;BME280;35706;52.100;5.056;2023-03-26T04:38:43;100331.88;;;9.08;100.00
49813;BME280;35706;52.100;5.056;2023-03-26T04:39:43;100335.72;;;8.94;100.00
49813;BME280;35706;52.100;5.056;2023-03-26T04:40:44;100331.47;;;8.93;100.00
49813;BME280;35706;52.100;5.056;2023-03-26T04:41:47;100333.78;;;8.87;100.00
49813;BME280;35706;52.100;5.056;2023-03-26T04:42:47;100327.47;;;8.89;100.00
49813;BME280;35706;52.100;5.056;2023-03-26T04:43:48;100330.63;;;8.93;100.00
49813;BME280;35706;52.100;5.056;2023-03-26T04:44:49;100324.69;;;8.91;100.00
49813;BME280;35706;52.100;5.056;2023-03-26T04:45:50;100328.84;;;8.84;100.00
49813;BME280;35706;52.100;5.056;2023-03-26T04:46:51;100323.03;;;8.90;100.00
49813;BME280;35706;52.100;5.056;2023-03-26T04:47:57;100321.13;;;8.92;100.00
49813;BME280;35706;52.100;5.056;2023-03-26T04:48:58;100323.47;;;8.85;100.00
49813;BME280;35706;52.100;5.056;2023-03-26T04:49:59;100320.69;;;8.87;100.00
49813;BME280;35706;52.100;5.056;2023-03-26T04:50:59;100317.13;;;8.88;100.00
49813;BME280;35706;52.100;5.056;2023-03-26T04:52:00;100318.50;;;8.92;100.00
49813;BME280;35706;52.100;5.056;2023-03-26T04:53:01;100309.66;;;8.93;100.00
49813;BME280;35706;52.100;5.056;2023-03-26T04:54:01;100305.22;;;9.03;100.00
49813;BME280;35706;52.100;5.056;2023-03-26T04:55:04;100309.38;;;9.06;100.00
49813;BME280;35706;52.100;5.056;2023-03-26T04:56:24;100306.34;;;9.10;100.00
49813;BME280;35706;52.100;5.056;2023-03-26T04:57:41;100307.59;;;9.06;100.00
49813;BME280;35706;52.100;5.056;2023-03-26T04:58:45;100312.97;;;9.05;100.00
49813;BME280;35706;52.100;5.056;2023-03-26T04:59:47;100301.50;;;9.06;100.00
49813;BME280;35706;52.100;5.056;2023-03-26T05:00:47;100302.34;;;9.06;100.00
49813;BME280;35706;52.100;5.056;2023-03-26T05:01:48;100302.47;;;9.05;100.00
49813;BME280;35706;52.100;5.056;2023-03-26T05:02:48;100298.88;;;9.06;100.00
49813;BME280;35706;52.100;5.056;2023-03-26T05:03:49;100298.19;;;9.04;100.00
49813;BME280;35706;52.100;5.056;2023-03-26T05:04:49;100299.88;;;9.05;100.00
49813;BME280;35706;52.100;5.056;2023-03-26T05:05:50;100299.16;;;9.03;100.00
49813;BME280;35706;52.100;5.056;2023-03-26T05:06:50;100293.78;;;9.04;100.00
49813;BME280;35706;52.100;5.056;2023-03-26T05:07:51;100293.94;;;9.03;100.00
49813;BME280;35706;52.100;5.056;2023-03-26T05:08:52;100294.22;;;9.00;100.00
49813;BME280;35706;52.100;5.056;2023-03-26T05:09:53;100294.22;;;9.00;100.00
49813;BME280;35706;52.100;5.056;2023-03-26T05:10:56;100296.00;;;9.09;100.00
49813;BME280;35706;52.100;5.056;2023-03-26T05:11:56;100292.69;;;9.07;100.00
49813;BME280;35706;52.100;5.056;2023-03-26T05:12:57;100290.63;;;9.10;100.00
49813;BME280;35706;52.100;5.056;2023-03-26T05:13:57;100295.16;;;9.18;100.00
49813;BME280;35706;52.100;5.056;2023-03-26T05:14:58;100289.38;;;9.14;99.90
49813;BME280;35706;52.100;5.056;2023-03-26T05:15:58;100286.88;;;9.13;99.93
49813;BME280;35706;52.100;5.056;2023-03-26T05:16:59;100286.31;;;9.09;100.00
49813;BME280;35706;52.100;5.056;2023-03-26T05:17:59;100289.81;;;9.00;100.00
49813;BME280;35706;52.100;5.056;2023-03-26T05:19:00;100290.75;;;9.09;100.00
49813;BME280;35706;52.100;5.056;2023-03-26T05:20:00;100279.28;;;9.10;100.00
49813;BME280;35706;52.100;5.056;2023-03-26T05:21:00;100284.94;;;9.05;100.00
49813;BME280;35706;52.100;5.056;2023-03-26T05:22:01;100285.66;;;9.07;100.00
49813;BME280;35706;52.100;5.056;2023-03-26T05:23:01;100276.66;;;9.10;100.00
49813;BME280;35706;52.100;5.056;2023-03-26T05:24:02;100281.09;;;9.09;99.98
49813;BME280;35706;52.100;5.056;2023-03-26T05:25:03;100272.66;;;9.06;100.00
49813;BME280;35706;52.100;5.056;2023-03-26T05:26:04;100275.28;;;9.06;100.00
49813;BME280;35706;52.100;5.056;2023-03-26T05:27:06;100270.03;;;9.06;100.00
49813;BME280;35706;52.100;5.056;2023-03-26T05:28:08;100274.47;;;9.15;99.51
49813;BME280;35706;52.100;5.056;2023-03-26T05:29:09;100271.97;;;9.13;99.42
49813;BME280;35706;52.100;5.056;2023-03-26T05:30:15;100268.09;;;9.27;98.99
49813;BME280;35706;52.100;5.056;2023-03-26T05:31:20;100259.94;;;9.30;98.60
49813;BME280;35706;52.100;5.056;2023-03-26T05:32:20;100267.81;;;9.21;98.66
49813;BME280;35706;52.100;5.056;2023-03-26T05:33:20;100257.31;;;9.21;99.18
49813;BME280;35706;52.100;5.056;2023-03-26T05:34:21;100260.94;;;9.20;98.99
49813;BME280;35706;52.100;5.056;2023-03-26T05:35:25;100254.31;;;9.15;99.14
49813;BME280;35706;52.100;5.056;2023-03-26T05:36:25;100262.00;;;9.27;98.78
49813;BME280;35706;52.100;5.056;2023-03-26T05:37:28;100260.50;;;9.24;98.46
49813;BME280;35706;52.100;5.056;2023-03-26T05:38:30;100253.50;;;9.15;99.24
49813;BME280;35706;52.100;5.056;2023-03-26T05:39:30;100250.72;;;9.16;98.95
49813;BME280;35706;52.100;5.056;2023-03-26T05:40:31;100250.88;;;9.15;99.07
49813;BME280;35706;52.100;5.056;2023-03-26T05:41:31;100255.41;;;9.13;99.40
49813;BME280;35706;52.100;5.056;2023-03-26T05:42:31;100251.44;;;9.09;99.90